createdAt,value
2018-06-08T00:02:01.039Z,5.77
2018-06-08T00:05:05.306Z,5.87
2018-06-08T00:08:09.626Z,5.97
2018-06-08T00:11:13.950Z,5.70
2018-06-08T00:14:18.408Z,6.20
2018-06-08T00:17:22.559Z,7.10
2018-06-08T00:20:27.091Z,6.20
2018-06-08T00:23:31.538Z,7.30
2018-06-08T00:26:35.871Z,7.20
2018-06-08T00:29:40.216Z,6.33
2018-06-08T00:32:45.311Z,6.90
2018-06-08T00:35:49.881Z,6.70
2018-06-08T00:38:54.182Z,6.50
2018-06-08T00:41:58.490Z,7.57
2018-06-08T00:45:02.622Z,7.40
2018-06-08T00:48:06.990Z,7.53
2018-06-08T00:51:11.151Z,6.90
2018-06-08T00:54:15.489Z,7.67
2018-06-08T00:57:19.829Z,7.30
2018-06-08T01:00:24.124Z,7.80
2018-06-08T01:03:27.977Z,7.80
2018-06-08T01:06:31.856Z,7.50
2018-06-08T01:09:35.738Z,7.40
2018-06-08T01:12:39.599Z,7.60
2018-06-08T01:15:43.538Z,7.60
2018-06-08T01:18:47.426Z,6.73
2018-06-08T01:21:51.638Z,8.17
2018-06-08T01:24:55.651Z,7.27
2018-06-08T01:27:59.930Z,7.57
2018-06-08T01:31:04.012Z,7.00
2018-06-08T01:34:08.236Z,7.70
2018-06-08T01:37:12.406Z,7.50
2018-06-08T01:40:16.637Z,8.63
2018-06-08T01:43:21.093Z,8.70
2018-06-08T01:46:25.243Z,7.40
2018-06-08T01:49:29.530Z,8.13
2018-06-08T01:52:33.798Z,7.90
2018-06-08T01:55:38.148Z,8.60
2018-06-08T01:58:42.490Z,8.73
2018-06-08T02:01:47.104Z,8.50
2018-06-08T02:04:51.552Z,8.73
2018-06-08T02:07:55.739Z,9.43
2018-06-08T02:11:00.152Z,9.40
2018-06-08T02:14:04.547Z,8.90
2018-06-08T02:17:08.670Z,9.30
2018-06-08T02:20:12.794Z,8.70
2018-06-08T02:23:17.034Z,9.30
2018-06-08T02:26:21.418Z,7.90
2018-06-08T02:29:25.687Z,8.00
2018-06-08T02:32:30.033Z,9.20
2018-06-08T02:35:34.321Z,9.30
2018-06-08T02:38:38.550Z,8.80
2018-06-08T02:41:42.832Z,7.80
2018-06-08T02:44:47.105Z,9.40
2018-06-08T02:47:51.294Z,8.97
2018-06-08T02:50:55.640Z,8.67
2018-06-08T02:54:00.077Z,7.83
2018-06-08T02:57:04.394Z,9.70
2018-06-08T03:00:08.598Z,8.80
2018-06-08T03:03:12.945Z,9.23
2018-06-08T03:06:17.361Z,9.27
2018-06-08T03:09:21.695Z,9.20
2018-06-08T03:12:25.937Z,8.97
2018-06-08T03:15:30.220Z,9.53
2018-06-08T03:18:34.510Z,8.10
2018-06-08T03:21:39.024Z,8.87
2018-06-08T03:24:43.330Z,8.97
2018-06-08T03:27:47.363Z,9.70
2018-06-08T03:30:51.498Z,8.80
2018-06-08T03:33:55.843Z,9.00
2018-06-08T03:37:00.038Z,9.47
2018-06-08T03:40:04.372Z,9.23
2018-06-08T03:43:08.940Z,9.73
2018-06-08T03:46:13.428Z,9.00
2018-06-08T03:49:17.667Z,8.10
2018-06-08T03:52:21.787Z,7.60
2018-06-08T03:55:25.895Z,9.43
2018-06-08T03:58:30.103Z,9.53
2018-06-08T04:01:34.438Z,8.60
2018-06-08T04:04:38.746Z,9.00
2018-06-08T04:07:43.082Z,8.87
2018-06-08T04:10:47.407Z,9.20
2018-06-08T04:13:51.744Z,8.50
2018-06-08T04:16:56.184Z,9.03
2018-06-08T04:20:00.354Z,10.17
2018-06-08T04:23:04.687Z,9.30
2018-06-08T04:26:08.995Z,9.90
2018-06-08T04:29:13.395Z,8.90
2018-06-08T04:32:17.904Z,8.83
2018-06-08T04:35:22.290Z,10.10
2018-06-08T04:38:26.638Z,9.87
2018-06-08T04:41:30.983Z,10.73
2018-06-08T04:44:35.300Z,9.07
2018-06-08T04:47:39.715Z,10.97
2018-06-08T04:50:44.049Z,10.40
2018-06-08T04:53:48.369Z,9.97
2018-06-08T04:56:52.848Z,10.13
2018-06-08T04:59:57.069Z,9.50
2018-06-08T05:03:01.393Z,10.60
2018-06-08T05:06:05.860Z,10.03
2018-06-08T05:09:10.078Z,9.77
2018-06-08T05:12:14.519Z,8.93
2018-06-08T05:15:18.666Z,10.97
2018-06-08T05:18:23.003Z,10.10
2018-06-08T05:21:28.330Z,10.80
2018-06-08T05:24:32.791Z,9.73
2018-06-08T05:27:38.144Z,10.03
2018-06-08T05:30:42.275Z,10.47
2018-06-08T05:33:46.487Z,10.40
2018-06-08T05:36:50.722Z,9.93
2018-06-08T05:39:54.883Z,8.60
2018-06-08T05:42:59.307Z,17.77
2018-06-08T05:46:04.078Z,13.30
2018-06-08T05:49:08.281Z,9.43
2018-06-08T05:52:12.604Z,9.57
2018-06-08T05:55:16.974Z,9.53
2018-06-08T05:58:21.409Z,9.30
2018-06-08T06:01:25.744Z,9.47
2018-06-08T06:04:30.055Z,9.80
2018-06-08T06:07:34.363Z,9.93
2018-06-08T06:10:38.657Z,9.40
2018-06-08T06:13:43.006Z,8.73
2018-06-08T06:16:47.502Z,8.27
2018-06-08T06:19:51.723Z,8.53
2018-06-08T06:22:55.996Z,8.17
2018-06-08T06:26:00.677Z,8.87
2018-06-08T06:29:05.062Z,8.87
2018-06-08T06:32:09.544Z,9.47
2018-06-08T06:35:13.759Z,10.57
2018-06-08T06:38:18.148Z,8.73
2018-06-08T06:41:22.721Z,9.63
2018-06-08T06:44:27.050Z,9.03
2018-06-08T06:47:34.772Z,9.60
2018-06-08T06:50:39.177Z,8.50
2018-06-08T06:53:43.501Z,8.30
2018-06-08T06:56:47.701Z,8.77
2018-06-08T06:59:51.957Z,9.43
2018-06-08T07:02:56.119Z,9.87
2018-06-08T07:06:00.601Z,8.97
2018-06-08T07:09:07.149Z,9.13
2018-06-08T07:12:11.039Z,9.50
2018-06-08T07:15:14.913Z,9.93
2018-06-08T07:18:18.903Z,9.30
2018-06-08T07:21:22.779Z,9.10
2018-06-08T07:24:26.990Z,10.13
2018-06-08T07:27:31.643Z,11.27
2018-06-08T07:30:35.942Z,9.70
2018-06-08T07:33:40.169Z,10.47
2018-06-08T07:36:44.512Z,9.97
2018-06-08T07:39:48.879Z,10.10
2018-06-08T07:42:53.277Z,9.63
2018-06-08T07:45:57.823Z,10.27
2018-06-08T07:49:02.345Z,11.50
2018-06-08T07:52:06.875Z,12.80
2018-06-08T07:55:11.765Z,12.30
2018-06-08T07:58:16.230Z,11.50
2018-06-08T08:01:20.513Z,12.23
2018-06-08T08:04:24.939Z,12.33
2018-06-08T08:07:29.259Z,12.57
2018-06-08T08:10:33.409Z,12.30
2018-06-08T08:13:37.494Z,12.60
2018-06-08T08:16:41.646Z,12.20
2018-06-08T08:19:45.810Z,12.20
2018-06-08T08:22:50.051Z,10.77
2018-06-08T08:25:54.239Z,10.90
2018-06-08T08:28:58.458Z,9.77
2018-06-08T08:32:02.644Z,8.87
2018-06-08T08:35:06.749Z,9.83
2018-06-08T08:38:10.929Z,9.73
2018-06-08T08:41:15.363Z,8.30
2018-06-08T08:44:19.475Z,8.50
2018-06-08T08:47:23.818Z,9.70
2018-06-08T08:50:28.150Z,9.50
2018-06-08T08:53:32.429Z,7.67
2018-06-08T08:56:37.128Z,7.10
2018-06-08T08:59:41.470Z,8.37
2018-06-08T09:02:45.490Z,6.37
2018-06-08T09:05:49.906Z,7.30
2018-06-08T09:08:54.183Z,6.90
2018-06-08T09:11:58.511Z,6.70
2018-06-08T09:15:03.017Z,7.40
2018-06-08T09:18:07.228Z,6.53
2018-06-08T09:21:11.343Z,6.33
2018-06-08T09:24:15.370Z,7.50
2018-06-08T09:27:19.748Z,7.37
2018-06-08T09:30:23.740Z,7.20
2018-06-08T09:33:27.765Z,7.73
2018-06-08T09:36:32.115Z,7.27
2018-06-08T09:39:36.464Z,8.20
2018-06-08T09:42:40.595Z,7.10
2018-06-08T09:45:44.945Z,6.43
2018-06-08T09:48:49.184Z,7.30
2018-06-08T09:51:53.555Z,7.67
2018-06-08T09:54:57.716Z,8.30
2018-06-08T09:58:01.897Z,8.00
2018-06-08T10:01:06.161Z,7.77
2018-06-08T10:04:10.316Z,7.80
2018-06-08T10:07:14.441Z,6.97
2018-06-08T10:10:18.587Z,6.90
2018-06-08T10:13:22.828Z,7.00
2018-06-08T10:16:27.269Z,7.40
2018-06-08T10:19:31.652Z,7.10
2018-06-08T10:22:35.938Z,6.83
2018-06-08T10:25:40.063Z,8.10
2018-06-08T10:28:44.163Z,8.07
2018-06-08T10:31:48.288Z,7.70
2018-06-08T10:34:52.623Z,7.70
2018-06-08T10:37:57.737Z,6.50
2018-06-08T10:41:01.853Z,6.73
2018-06-08T10:44:06.559Z,8.00
2018-06-08T10:47:10.963Z,7.73
2018-06-08T10:50:15.251Z,7.27
2018-06-08T10:53:19.601Z,8.30
2018-06-08T10:56:24.810Z,7.90
2018-06-08T10:59:28.896Z,7.17
2018-06-08T11:02:33.127Z,7.80
2018-06-08T11:05:37.350Z,8.77
2018-06-08T11:08:41.651Z,7.07
2018-06-08T11:11:46.122Z,7.43
2018-06-08T11:14:49.989Z,8.10
2018-06-08T11:17:54.093Z,7.77
2018-06-08T11:20:58.364Z,7.30
2018-06-08T11:24:02.598Z,8.00
2018-06-08T11:27:07.481Z,6.77
2018-06-08T11:30:11.731Z,7.77
2018-06-08T11:33:16.002Z,7.97
2018-06-08T11:36:20.114Z,8.13
2018-06-08T11:39:24.228Z,6.73
2018-06-08T11:42:28.325Z,7.20
2018-06-08T11:45:32.677Z,7.37
2018-06-08T11:48:37.446Z,7.63
2018-06-08T11:51:41.682Z,7.63
2018-06-08T11:54:46.751Z,6.80
2018-06-08T11:57:50.888Z,7.23
2018-06-08T12:00:56.132Z,7.50
2018-06-08T12:04:01.471Z,7.10
2018-06-08T12:07:05.602Z,7.30
2018-06-08T12:10:09.846Z,6.77
2018-06-08T12:13:14.100Z,6.20
2018-06-08T12:16:18.043Z,6.40
2018-06-08T12:19:22.495Z,6.60
2018-06-08T12:22:26.793Z,6.50
2018-06-08T12:25:31.171Z,6.03
2018-06-08T12:28:35.372Z,5.80
2018-06-08T12:31:41.001Z,6.43
2018-06-08T12:34:45.418Z,6.50
2018-06-08T12:37:49.788Z,5.90
2018-06-08T12:40:54.505Z,5.90
2018-06-08T12:43:58.656Z,6.07
2018-06-08T12:47:02.955Z,7.10
2018-06-08T12:50:07.250Z,6.67
2018-06-08T12:53:11.419Z,6.97
2018-06-08T12:56:15.677Z,6.40
2018-06-08T12:59:19.779Z,6.70
2018-06-08T13:02:23.858Z,6.50
2018-06-08T13:05:28.106Z,6.37
2018-06-08T13:08:32.419Z,5.93
2018-06-08T13:11:36.750Z,7.10
2018-06-08T13:14:41.035Z,7.23
2018-06-08T13:17:45.526Z,7.10
2018-06-08T13:20:49.706Z,6.87
2018-06-08T13:23:54.798Z,7.33
2018-06-08T13:26:59.131Z,6.73
2018-06-08T13:30:03.791Z,6.30
2018-06-08T13:33:08.003Z,6.83
2018-06-08T13:36:12.348Z,5.87
2018-06-08T13:39:16.877Z,6.67
2018-06-08T13:42:22.057Z,6.90
2018-06-08T13:45:26.371Z,6.70
2018-06-08T13:48:30.783Z,5.97
2018-06-08T13:51:35.218Z,6.50
2018-06-08T13:54:39.653Z,7.30
2018-06-08T13:57:43.811Z,6.60
2018-06-08T14:00:47.834Z,7.23
2018-06-08T14:03:52.189Z,6.53
2018-06-08T14:06:56.561Z,6.70
2018-06-08T14:10:00.686Z,6.90
2018-06-08T14:13:05.148Z,7.30
2018-06-08T14:16:09.291Z,7.20
2018-06-08T14:19:13.657Z,6.50
2018-06-08T14:22:17.954Z,6.93
2018-06-08T14:25:22.313Z,7.20
2018-06-08T14:28:26.779Z,8.27
2018-06-08T14:31:30.963Z,6.53
2018-06-08T14:34:35.442Z,6.77
2018-06-08T14:37:39.766Z,7.30
2018-06-08T14:40:44.121Z,7.67
2018-06-08T14:43:48.570Z,7.80
2018-06-08T14:46:52.929Z,7.70
2018-06-08T14:49:57.305Z,7.73
2018-06-08T14:53:01.784Z,7.43
2018-06-08T14:56:06.382Z,8.10
2018-06-08T14:59:10.687Z,7.93
2018-06-08T15:02:15.117Z,7.67
2018-06-08T15:05:19.540Z,8.13
2018-06-08T15:08:23.950Z,8.00
2018-06-08T15:11:28.241Z,7.77
2018-06-08T15:14:32.111Z,7.83
2018-06-08T15:17:36.325Z,8.00
2018-06-08T15:20:40.614Z,6.97
2018-06-08T15:23:45.192Z,7.47
2018-06-08T15:26:49.515Z,6.90
2018-06-08T15:29:53.805Z,7.17
2018-06-08T15:32:58.109Z,7.60
2018-06-08T15:36:01.820Z,7.50
2018-06-08T15:39:08.041Z,8.13
2018-06-08T15:42:12.427Z,7.17
2018-06-08T15:45:16.731Z,7.20
2018-06-08T15:48:21.228Z,8.00
2018-06-08T15:51:25.302Z,7.07
2018-06-08T15:54:29.559Z,7.87
2018-06-08T15:57:33.946Z,8.10
2018-06-08T16:00:38.321Z,8.20
2018-06-08T16:03:42.727Z,8.73
2018-06-08T16:06:46.896Z,8.90
2018-06-08T16:09:51.160Z,7.37
2018-06-08T16:12:55.461Z,8.07
2018-06-08T16:15:59.745Z,8.93
2018-06-08T16:19:03.972Z,8.10
2018-06-08T16:22:08.156Z,7.80
2018-06-08T16:25:12.442Z,8.10
2018-06-08T16:28:16.617Z,7.77
2018-06-08T16:31:20.791Z,8.13
2018-06-08T16:34:25.005Z,7.20
2018-06-08T16:37:29.559Z,7.03
2018-06-08T16:40:33.641Z,7.23
2018-06-08T16:43:37.934Z,7.43
2018-06-08T16:46:42.258Z,7.80
2018-06-08T16:49:46.534Z,7.57
2018-06-08T16:52:50.833Z,8.77
2018-06-08T16:55:55.189Z,9.17
2018-06-08T16:58:59.468Z,8.30
2018-06-08T17:02:03.962Z,8.33
2018-06-08T17:05:08.486Z,14.40
2018-06-08T17:08:12.700Z,19.77
2018-06-08T17:11:16.999Z,11.97
2018-06-08T17:14:21.281Z,9.77
2018-06-08T17:17:25.670Z,8.40
2018-06-08T17:20:29.953Z,9.87
2018-06-08T17:23:34.373Z,12.03
2018-06-08T17:26:38.920Z,11.50
2018-06-08T17:29:43.132Z,8.77
2018-06-08T17:32:47.674Z,10.53
2018-06-08T17:35:52.070Z,13.10
2018-06-08T17:38:56.409Z,11.13
2018-06-08T17:42:00.820Z,12.40
2018-06-08T17:45:05.467Z,12.17
2018-06-08T17:48:09.658Z,11.20
2018-06-08T17:51:14.128Z,12.60
2018-06-08T17:54:18.473Z,13.00
2018-06-08T17:57:23.015Z,14.67
2018-06-08T18:00:27.651Z,14.27
2018-06-08T18:03:32.016Z,11.20
2018-06-08T18:06:36.351Z,11.23
2018-06-08T18:09:40.522Z,8.80
2018-06-08T18:12:44.881Z,9.40
2018-06-08T18:15:49.297Z,10.70
2018-06-08T18:18:53.957Z,11.00
2018-06-08T18:21:58.322Z,10.43
2018-06-08T18:25:02.517Z,11.17
2018-06-08T18:28:06.990Z,11.13
2018-06-08T18:31:11.139Z,11.40
2018-06-08T18:34:15.537Z,10.20
2018-06-08T18:37:19.959Z,10.10
2018-06-08T18:40:23.869Z,11.47
2018-06-08T18:43:28.252Z,8.27
2018-06-08T18:46:32.502Z,9.60
2018-06-08T18:49:36.872Z,8.70
2018-06-08T18:52:41.014Z,8.60
2018-06-08T18:55:45.500Z,7.47
2018-06-08T18:58:50.035Z,7.50
2018-06-08T19:01:54.206Z,8.57
2018-06-08T19:04:58.506Z,9.67
2018-06-08T19:08:02.715Z,8.70
2018-06-08T19:11:07.582Z,8.30
2018-06-08T19:14:11.931Z,8.90
2018-06-08T19:17:16.307Z,9.30
2018-06-08T19:20:21.929Z,8.57
2018-06-08T19:23:26.321Z,8.87
2018-06-08T19:26:30.698Z,10.47
2018-06-08T19:29:36.286Z,9.70
2018-06-08T19:32:40.650Z,9.53
2018-06-08T19:35:45.110Z,9.40
2018-06-08T19:38:49.598Z,9.83
2018-06-08T19:41:53.927Z,10.60
2018-06-08T19:44:57.885Z,10.07
2018-06-08T19:48:02.397Z,10.87
2018-06-08T19:51:06.799Z,11.03
2018-06-08T19:54:10.718Z,11.13
2018-06-08T19:57:14.701Z,10.30
2018-06-08T20:00:18.587Z,11.20
2018-06-08T20:03:22.986Z,11.07
2018-06-08T20:06:27.289Z,10.70
2018-06-08T20:09:31.605Z,10.33
2018-06-08T20:12:35.969Z,9.20
2018-06-08T20:15:40.293Z,10.10
2018-06-08T20:18:44.787Z,10.03
2018-06-08T20:21:49.319Z,9.17
2018-06-08T20:24:53.590Z,8.10
2018-06-08T20:27:57.884Z,9.07
2018-06-08T20:31:02.242Z,8.57
2018-06-08T20:34:06.668Z,9.70
2018-06-08T20:37:11.359Z,8.90
2018-06-08T20:40:15.847Z,8.83
2018-06-08T20:43:20.872Z,10.07
2018-06-08T20:46:25.301Z,8.73
2018-06-08T20:49:29.479Z,10.30
2018-06-08T20:52:33.983Z,11.20
2018-06-08T20:55:38.442Z,8.90
2018-06-08T20:58:42.991Z,11.23
2018-06-08T21:01:47.297Z,10.33
2018-06-08T21:04:51.624Z,12.13
2018-06-08T21:07:56.003Z,11.20
2018-06-08T21:11:00.519Z,12.20
2018-06-08T21:14:04.839Z,10.57
2018-06-08T21:17:09.308Z,10.37
2018-06-08T21:20:13.682Z,10.93
2018-06-08T21:23:18.205Z,11.27
2018-06-08T21:26:22.747Z,13.80
2018-06-08T21:29:27.223Z,11.83
2018-06-08T21:32:31.578Z,12.70
2018-06-08T21:35:36.309Z,12.50
2018-06-08T21:38:40.686Z,15.10
2018-06-08T21:41:44.949Z,13.63
2018-06-08T21:44:49.251Z,14.87
2018-06-08T21:47:53.251Z,16.37
2018-06-08T21:50:57.482Z,13.93
2018-06-08T21:54:01.752Z,13.07
2018-06-08T21:57:05.376Z,10.93
2018-06-08T22:00:10.004Z,10.90
2018-06-08T22:03:14.246Z,10.33
2018-06-08T22:06:18.367Z,9.10
2018-06-08T22:09:22.576Z,9.53
2018-06-08T22:12:26.730Z,10.23
2018-06-08T22:15:30.893Z,9.27
2018-06-08T22:18:35.257Z,9.90
2018-06-08T22:21:40.485Z,8.57
2018-06-08T22:24:44.841Z,8.90
2018-06-08T22:27:48.960Z,8.60
2018-06-08T22:30:53.447Z,9.10
2018-06-08T22:33:57.630Z,9.97
2018-06-08T22:37:01.808Z,8.60
2018-06-08T22:40:06.519Z,10.43
2018-06-08T22:43:11.072Z,8.53
2018-06-08T22:46:15.361Z,8.30
2018-06-08T22:49:20.798Z,8.30
2018-06-08T22:52:25.164Z,7.80
2018-06-08T22:55:29.478Z,8.67
2018-06-08T22:58:33.942Z,6.70
2018-06-08T23:01:38.144Z,7.73
2018-06-08T23:04:42.308Z,6.90
2018-06-08T23:07:46.663Z,6.17
2018-06-08T23:10:51.060Z,8.13
2018-06-08T23:13:55.289Z,6.70
2018-06-08T23:16:59.997Z,7.30
2018-06-08T23:20:04.390Z,5.93
2018-06-08T23:23:08.807Z,6.63
2018-06-08T23:26:12.927Z,6.30
2018-06-08T23:29:17.851Z,5.73
2018-06-08T23:32:22.027Z,6.33
2018-06-08T23:35:26.821Z,5.43
2018-06-08T23:38:31.225Z,6.60
2018-06-08T23:41:35.559Z,4.63
2018-06-08T23:44:39.851Z,4.73
2018-06-08T23:47:43.979Z,5.90
2018-06-08T23:50:48.137Z,5.00
2018-06-08T23:53:52.321Z,5.77
2018-06-08T23:56:56.652Z,4.77
